Time;durP1;ratioP1;P1;durP2;ratioP2;P2;SDS_P1;SDS_P2;PMS_P1;PMS_P2;Temp;Humidity;BMP_temperature;BMP_pressure;BME280_temperature;BME280_humidity;BME280_pressure;Samples;Min_cycle;Max_cycle;Signal;HPM_P1;HPM_P2
2021/11/26 00:01:01;;;;;;;0.63;0.63;;;;;;;-10.93;69.06;97920.72;5112737;28;20039;-71
2021/11/26 00:03:27;;;;;;;0.30;0.30;;;;;;;-10.89;68.99;97918.66;5113713;28;20502;-69
2021/11/26 00:05:52;;;;;;;0.40;0.40;;;;;;;-10.88;68.89;97923.84;5114348;28;20066;-72
2021/11/26 00:08:18;;;;;;;0.50;0.50;;;;;;;-10.86;69.07;97916.63;5112280;28;20173;-68
2021/11/26 00:10:44;;;;;;;0.57;0.57;;;;;;;-10.84;69.17;97919.97;5111331;28;20449;-71
2021/11/26 00:13:11;;;;;;;0.40;0.40;;;;;;;-10.83;69.47;97923.50;5112625;28;20471;-70
2021/11/26 00:15:38;;;;;;;0.40;0.40;;;;;;;-10.82;69.55;97935.78;5112521;28;20096;-71
2021/11/26 00:18:15;;;;;;;0.50;0.50;;;;;;;-10.78;69.32;97942.53;5112325;28;20444;-71
2021/11/26 00:20:41;;;;;;;0.40;0.40;;;;;;;-10.66;68.97;97944.19;5112230;28;20071;-71
2021/11/26 00:23:07;;;;;;;0.50;0.50;;;;;;;-10.55;68.77;97951.31;5112336;28;20489;-70
2021/11/26 00:25:34;;;;;;;0.55;0.55;;;;;;;-10.45;68.90;97952.25;5112355;28;20179;-70
2021/11/26 00:28:00;;;;;;;0.52;0.52;;;;;;;-10.38;68.62;97957.88;5094098;28;20130;-69
2021/11/26 00:30:26;;;;;;;0.40;0.40;;;;;;;-10.30;68.41;97957.25;5112205;28;20043;-71
2021/11/26 00:32:51;;;;;;;1.55;0.70;;;;;;;-10.24;68.30;97964.72;5113485;28;20044;-70
2021/11/26 00:35:17;;;;;;;0.55;0.55;;;;;;;-10.25;68.69;97971.81;5113572;28;20180;-71
2021/11/26 00:37:43;;;;;;;0.40;0.40;;;;;;;-10.23;68.30;97967.25;5112377;28;20491;-68
2021/11/26 00:40:10;;;;;;;0.40;0.40;;;;;;;-10.15;68.65;97958.66;5114027;28;20035;-69
2021/11/26 00:42:39;;;;;;;0.40;0.40;;;;;;;-10.06;68.39;97965.03;5116413;28;20042;-70
2021/11/26 00:45:06;;;;;;;1.05;0.93;;;;;;;-10.01;68.28;97964.63;5116396;28;20040;-70
2021/11/26 00:47:31;;;;;;;1.35;1.25;;;;;;;-9.96;68.08;97971.25;5116142;28;20040;-71
2021/11/26 00:49:57;;;;;;;0.38;0.38;;;;;;;-9.90;68.24;97961.97;5116190;28;20058;-70
2021/11/26 00:52:23;;;;;;;0.73;0.50;;;;;;;-9.81;68.28;97966.50;5116015;28;20088;-74
2021/11/26 00:54:49;;;;;;;0.68;0.63;;;;;;;-9.77;67.93;97957.31;5116385;28;20040;-72
2021/11/26 00:57:14;;;;;;;0.98;0.70;;;;;;;-9.73;68.01;97953.44;5115740;28;20035;-70
2021/11/26 00:59:40;;;;;;;0.77;0.77;;;;;;;-9.70;67.80;97957.63;5116913;28;20042;-72
2021/11/26 01:02:07;;;;;;;0.73;0.73;;;;;;;-9.69;68.08;97964.63;5116992;28;20028;-73
2021/11/26 01:04:33;;;;;;;0.30;0.30;;;;;;;-9.71;67.94;97975.38;5116859;28;20040;-69
2021/11/26 01:06:59;;;;;;;0.70;0.70;;;;;;;-9.72;68.06;97973.69;5097392;28;20188;-70
2021/11/26 01:09:25;;;;;;;0.30;0.30;;;;;;;-9.72;68.12;97972.88;5115522;28;20119;-69
2021/11/26 01:11:51;;;;;;;1.50;0.80;;;;;;;-9.74;68.33;97964.19;5097512;28;20047;-70
2021/11/26 01:14:17;;;;;;;2.63;1.23;;;;;;;-9.76;68.21;97971.41;5099768;28;20040;-70
2021/11/26 01:16:43;;;;;;;4.97;0.88;;;;;;;-9.81;68.50;97966.50;5094963;28;20052;-72
2021/11/26 01:19:08;;;;;;;0.45;0.45;;;;;;;-9.90;68.67;97978.72;5094985;28;20094;-71
2021/11/26 01:21:34;;;;;;;0.40;0.40;;;;;;;-9.92;68.98;97987.78;5094939;28;20519;-70
2021/11/26 01:24:00;;;;;;;0.40;0.40;;;;;;;-9.96;68.83;97995.16;5094671;28;20047;-68
2021/11/26 01:26:26;;;;;;;1.00;0.85;;;;;;;-9.95;68.94;97996.88;5094846;28;20039;-69
2021/11/26 01:28:52;;;;;;;0.40;0.40;;;;;;;-9.92;69.22;97996.63;5095290;28;20032;-67
2021/11/26 01:31:18;;;;;;;1.08;0.70;;;;;;;-9.84;69.22;98000.44;5094850;28;20040;-67
2021/11/26 01:33:45;;;;;;;0.45;0.45;;;;;;;-9.80;68.76;97993.91;5095640;28;20512;-69
2021/11/26 01:36:11;;;;;;;0.45;0.45;;;;;;;-9.74;68.53;98009.34;5094973;28;20397;-69
2021/11/26 01:38:37;;;;;;;0.38;0.38;;;;;;;-9.67;68.56;98013.19;5095054;28;20054;-68
2021/11/26 01:41:08;;;;;;;1.35;0.65;;;;;;;-9.60;68.54;98013.50;5094894;28;20047;-70
2021/11/26 01:43:34;;;;;;;0.40;0.40;;;;;;;-9.56;68.60;98007.81;5094737;28;20047;-70
2021/11/26 01:46:09;;;;;;;0.47;0.47;;;;;;;-9.57;68.66;98014.13;5094379;28;20494;-68
2021/11/26 01:48:40;;;;;;;0.63;0.63;;;;;;;-9.55;68.63;98020.13;5094628;28;20067;-68
2021/11/26 01:51:07;;;;;;;0.40;0.40;;;;;;;-9.52;68.63;98011.91;5092593;28;20050;-68
2021/11/26 01:53:34;;;;;;;0.50;0.50;;;;;;;-9.48;68.56;98019.63;5075200;28;20040;-65
2021/11/26 01:56:00;;;;;;;0.40;0.40;;;;;;;-9.50;68.46;98014.44;5093590;28;20040;-62
2021/11/26 01:58:26;;;;;;;0.52;0.47;;;;;;;-9.55;68.74;98012.16;5086957;28;20086;-65
2021/11/26 02:00:55;;;;;;;1.85;0.85;;;;;;;-9.55;68.50;98022.78;5077706;28;20445;-64
2021/11/26 02:03:21;;;;;;;0.63;0.63;;;;;;;-9.57;68.50;98011.47;5086251;28;20490;-63
2021/11/26 02:05:46;;;;;;;0.57;0.57;;;;;;;-9.55;68.59;98028.09;5077500;28;20040;-59
2021/11/26 02:08:13;;;;;;;0.38;0.38;;;;;;;-9.53;68.75;98022.66;5090336;28;20093;-66
2021/11/26 02:10:40;;;;;;;0.47;0.47;;;;;;;-9.48;68.47;98027.59;5074243;28;20097;-67
2021/11/26 02:13:05;;;;;;;4.57;0.68;;;;;;;-9.46;68.69;98033.63;5089208;28;20047;-69
2021/11/26 02:15:39;;;;;;;0.52;0.52;;;;;;;-9.51;68.70;98026.03;5089219;28;20396;-67
2021/11/26 02:18:05;;;;;;;0.55;0.55;;;;;;;-9.54;68.77;98043.09;5094063;28;20044;-66
2021/11/26 02:20:31;;;;;;;0.98;0.45;;;;;;;-9.51;69.03;98034.00;5093669;28;20541;-66
2021/11/26 02:23:00;;;;;;;0.70;0.70;;;;;;;-9.47;68.77;98032.78;5094292;28;20098;-67
2021/11/26 02:25:27;;;;;;;0.30;0.30;;;;;;;-9.47;68.91;98047.91;5095386;28;20525;-68
2021/11/26 02:27:57;;;;;;;1.23;0.85;;;;;;;-9.49;68.66;98048.03;5094038;28;20533;-68
2021/11/26 02:30:23;;;;;;;0.75;0.75;;;;;;;-9.48;68.78;98056.81;5094236;28;20116;-66
2021/11/26 02:32:53;;;;;;;0.52;0.52;;;;;;;-9.49;69.14;98055.13;5075603;28;20093;-66
2021/11/26 02:35:19;;;;;;;0.40;0.40;;;;;;;-9.52;69.13;98061.56;5094142;28;20501;-67
2021/11/26 02:37:45;;;;;;;0.57;0.57;;;;;;;-9.57;69.03;98059.28;5094125;28;20043;-67
2021/11/26 02:40:14;;;;;;;0.50;0.50;;;;;;;-9.60;69.15;98064.00;5093724;28;20119;-68
2021/11/26 02:42:40;;;;;;;0.40;0.40;;;;;;;-9.62;69.41;98058.81;5093624;28;20051;-68
2021/11/26 02:45:08;;;;;;;1.38;0.75;;;;;;;-9.66;69.23;98053.88;5093666;28;20089;-67
2021/11/26 02:47:35;;;;;;;2.08;0.85;;;;;;;-9.73;69.54;98056.19;5093470;28;20063;-67
2021/11/26 02:50:04;;;;;;;5.18;0.70;;;;;;;-9.80;69.54;98061.16;5093595;28;20036;-67
2021/11/26 02:52:30;;;;;;;0.40;0.40;;;;;;;-9.87;69.79;98057.31;5093509;28;20043;-67
2021/11/26 02:54:56;;;;;;;0.57;0.40;;;;;;;-9.96;69.88;98050.09;5093509;28;20127;-67
2021/11/26 02:57:23;;;;;;;0.75;0.70;;;;;;;-10.03;69.98;98057.72;5093420;28;20093;-67
2021/11/26 02:59:48;;;;;;;0.65;0.65;;;;;;;-10.11;70.18;98052.19;5093826;28;20048;-68
2021/11/26 03:02:14;;;;;;;0.88;0.88;;;;;;;-10.14;70.02;98057.72;5089443;28;20040;-66
2021/11/26 03:04:40;;;;;;;0.47;0.47;;;;;;;-10.19;70.22;98060.75;5092081;28;20043;-69
2021/11/26 03:07:07;;;;;;;0.70;0.70;;;;;;;-10.22;70.27;98061.84;5091830;28;20091;-67
2021/11/26 03:09:34;;;;;;;0.35;0.35;;;;;;;-10.24;70.30;98063.78;5089343;28;20043;-66
2021/11/26 03:12:00;;;;;;;1.30;0.60;;;;;;;-10.25;70.38;98058.59;5091801;28;20040;-68
2021/11/26 03:14:25;;;;;;;1.05;1.05;;;;;;;-10.27;70.13;98061.38;5073746;28;20058;-69
2021/11/26 03:16:52;;;;;;;0.63;0.63;;;;;;;-10.28;70.26;98059.66;5091390;28;20056;-66
2021/11/26 03:19:18;;;;;;;0.45;0.45;;;;;;;-10.31;70.20;98064.38;5091850;28;20040;-67
2021/11/26 03:21:44;;;;;;;2.75;0.82;;;;;;;-10.32;70.30;98071.53;5091873;28;20055;-67
2021/11/26 03:24:10;;;;;;;2.83;0.65;;;;;;;-10.28;69.80;98075.59;5091975;28;20521;-67
2021/11/26 03:26:35;;;;;;;0.60;0.60;;;;;;;-10.26;70.00;98079.00;5092139;28;20036;-66
2021/11/26 03:29:01;;;;;;;1.88;0.85;;;;;;;-10.27;69.91;98076.47;5092221;28;20042;-67
2021/11/26 03:31:27;;;;;;;1.05;1.02;;;;;;;-10.26;69.86;98083.44;5091771;28;20456;-67
2021/11/26 03:33:53;;;;;;;0.57;0.57;;;;;;;-10.26;70.10;98086.09;5086696;28;20043;-67
2021/11/26 03:36:18;;;;;;;2.15;0.95;;;;;;;-10.26;69.60;98091.41;5090850;28;20176;-66
2021/11/26 03:38:44;;;;;;;3.03;1.17;;;;;;;-10.27;69.96;98097.69;5091157;28;20047;-67
2021/11/26 03:41:11;;;;;;;0.35;0.35;;;;;;;-10.28;69.88;98107.44;5091176;28;20040;-66
2021/11/26 03:43:37;;;;;;;0.93;0.93;;;;;;;-10.29;69.87;98105.78;5091206;28;20184;-66
2021/11/26 03:46:03;;;;;;;0.57;0.57;;;;;;;-10.29;69.86;98108.44;5092405;28;20135;-67
2021/11/26 03:48:28;;;;;;;1.35;1.20;;;;;;;-10.30;69.74;98114.69;5092622;28;20031;-68
2021/11/26 03:50:54;;;;;;;0.45;0.45;;;;;;;-10.26;69.53;98110.84;5092343;28;20067;-66
2021/11/26 03:53:20;;;;;;;0.43;0.43;;;;;;;-10.25;69.64;98111.69;5092524;28;20085;-67
2021/11/26 03:55:46;;;;;;;1.50;1.40;;;;;;;-10.24;69.62;98122.19;5092284;28;20043;-68
2021/11/26 03:58:12;;;;;;;0.65;0.65;;;;;;;-10.23;69.86;98105.28;5092886;28;20040;-67
2021/11/26 04:00:38;;;;;;;1.55;0.88;;;;;;;-10.17;69.58;98117.25;5092681;28;20359;-67
2021/11/26 04:03:04;;;;;;;0.47;0.47;;;;;;;-10.12;69.38;98119.53;5092327;28;20048;-67
2021/11/26 04:05:30;;;;;;;0.57;0.57;;;;;;;-10.11;69.10;98121.22;5092753;28;20036;-67
2021/11/26 04:07:56;;;;;;;0.57;0.57;;;;;;;-10.08;69.46;98126.28;5092222;28;20498;-67
2021/11/26 04:10:21;;;;;;;0.40;0.40;;;;;;;-10.08;69.47;98121.81;5092196;28;20413;-67
2021/11/26 04:12:49;;;;;;;0.45;0.45;;;;;;;-10.06;69.25;98137.63;5092295;28;20043;-67
2021/11/26 04:15:17;;;;;;;1.10;1.02;;;;;;;-10.06;69.46;98137.63;5094069;28;20048;-66
2021/11/26 04:17:45;;;;;;;0.85;0.85;;;;;;;-10.00;69.36;98137.13;5096827;28;20043;-67
2021/11/26 04:20:13;;;;;;;1.75;1.17;;;;;;;-9.90;69.10;98143.41;5096264;28;20135;-66
2021/11/26 04:22:39;;;;;;;0.57;0.57;;;;;;;-9.79;68.98;98139.03;5096771;28;20044;-68
2021/11/26 04:25:08;;;;;;;0.85;0.60;;;;;;;-9.67;68.96;98140.72;5096617;28;20040;-67
2021/11/26 04:27:34;;;;;;;0.50;0.38;;;;;;;-9.58;68.43;98155.09;5096686;28;20119;-67
2021/11/26 04:30:00;;;;;;;0.50;0.50;;;;;;;-9.53;68.54;98151.06;5096740;28;20123;-68
2021/11/26 04:32:26;;;;;;;0.75;0.63;;;;;;;-9.48;68.53;98168.47;5078302;28;20067;-67
2021/11/26 04:34:52;;;;;;;1.33;0.93;;;;;;;-9.42;68.25;98158.19;5096424;28;20044;-67
2021/11/26 04:37:18;;;;;;;1.30;1.20;;;;;;;-9.34;67.98;98165.53;5096208;28;20040;-68
2021/11/26 04:39:43;;;;;;;0.43;0.40;;;;;;;-9.26;68.32;98172.88;5096029;28;20055;-68
2021/11/26 04:42:10;;;;;;;5.68;0.95;;;;;;;-9.19;67.79;98176.72;5096235;28;20047;-68
2021/11/26 04:44:36;;;;;;;0.77;0.77;;;;;;;-9.10;68.35;98177.78;5096293;28;20462;-69
2021/11/26 04:47:02;;;;;;;1.00;1.00;;;;;;;-9.02;67.86;98191.31;5095938;28;20074;-68
2021/11/26 04:49:28;;;;;;;0.70;0.70;;;;;;;-8.98;67.90;98192.72;5096073;28;20052;-67
2021/11/26 04:51:54;;;;;;;1.08;1.08;;;;;;;-8.94;67.68;98199.47;5095663;28;20490;-67
2021/11/26 04:54:19;;;;;;;0.52;0.52;;;;;;;-8.92;67.81;98188.72;5061023;28;20131;-68
2021/11/26 04:56:45;;;;;;;0.40;0.40;;;;;;;-8.96;68.03;98198.78;5077888;28;20417;-69
2021/11/26 04:59:11;;;;;;;7.47;1.15;;;;;;;-8.99;68.05;98191.06;5095886;28;20040;-67
2021/11/26 05:01:37;;;;;;;0.35;0.35;;;;;;;-9.02;68.06;98193.97;5095726;28;20048;-69
2021/11/26 05:04:03;;;;;;;1.35;1.25;;;;;;;-9.06;68.36;98196.03;5095614;28;20040;-66
2021/11/26 05:06:28;;;;;;;10.38;2.33;;;;;;;-9.07;68.50;98196.16;5095650;28;20127;-68
2021/11/26 05:08:54;;;;;;;0.40;0.40;;;;;;;-9.08;68.65;98199.78;5095749;28;20044;-67
2021/11/26 05:11:20;;;;;;;2.08;1.15;;;;;;;-9.07;68.49;98218.25;5095791;28;20051;-68
2021/11/26 05:13:47;;;;;;;0.52;0.52;;;;;;;-9.05;68.59;98224.31;5095449;28;20126;-68
2021/11/26 05:16:14;;;;;;;1.13;1.13;;;;;;;-9.07;68.83;98231.56;5095439;28;20510;-67
2021/11/26 05:18:41;;;;;;;0.60;0.60;;;;;;;-9.07;68.56;98225.41;5077546;28;20044;-67
2021/11/26 05:21:07;;;;;;;0.50;0.50;;;;;;;-9.07;68.71;98228.91;5095584;28;20040;-68
2021/11/26 05:23:33;;;;;;;0.50;0.50;;;;;;;-9.05;68.85;98228.81;5095117;28;20044;-68
2021/11/26 05:25:58;;;;;;;1.38;1.25;;;;;;;-9.06;68.58;98227.09;5096138;28;20047;-68
2021/11/26 05:28:26;;;;;;;5.78;1.00;;;;;;;-9.06;68.79;98230.59;5084589;28;20518;-67
2021/11/26 05:30:51;;;;;;;0.40;0.40;;;;;;;-9.04;68.60;98233.13;5091007;28;20074;-67
2021/11/26 05:33:17;;;;;;;0.57;0.57;;;;;;;-9.05;68.67;98229.63;5090874;28;20450;-69
2021/11/26 05:35:43;;;;;;;0.40;0.40;;;;;;;-8.98;68.33;98245.91;5069454;28;20150;-70
2021/11/26 05:38:09;;;;;;;0.50;0.50;;;;;;;-8.94;68.38;98252.69;5093773;28;20047;-67
2021/11/26 05:40:35;;;;;;;2.08;0.63;;;;;;;-8.91;68.37;98263.06;5093093;28;20051;-68
2021/11/26 05:43:01;;;;;;;0.60;0.60;;;;;;;-8.86;68.06;98255.59;5093343;28;20523;-69
2021/11/26 05:45:27;;;;;;;0.63;0.63;;;;;;;-8.82;67.91;98265.00;5092741;28;20040;-68
2021/11/26 05:47:53;;;;;;;0.63;0.63;;;;;;;-8.77;67.91;98267.28;5093263;28;20049;-68
2021/11/26 05:50:20;;;;;;;0.70;0.70;;;;;;;-8.73;68.12;98265.22;5092821;28;20047;-68
2021/11/26 05:52:46;;;;;;;0.50;0.50;;;;;;;-8.70;67.90;98276.47;5076768;28;20040;-69
2021/11/26 05:55:16;;;;;;;0.40;0.40;;;;;;;-8.66;67.95;98280.53;5095636;28;20086;-68
2021/11/26 05:57:42;;;;;;;0.50;0.50;;;;;;;-8.66;67.96;98282.34;5095251;28;20051;-67
2021/11/26 06:00:11;;;;;;;1.75;1.42;;;;;;;-8.69;67.94;98272.81;5094618;28;20036;-67
2021/11/26 06:02:37;;;;;;;0.52;0.52;;;;;;;-8.68;68.13;98281.66;5094091;28;20069;-67
2021/11/26 06:05:04;;;;;;;6.50;1.40;;;;;;;-8.67;68.42;98281.53;5094978;28;20047;-68
2021/11/26 06:07:29;;;;;;;0.57;0.57;;;;;;;-8.65;68.19;98278.75;5093405;28;20513;-67
2021/11/26 06:09:55;;;;;;;2.78;0.90;;;;;;;-8.64;68.12;98286.59;5093543;28;20036;-68
2021/11/26 06:12:21;;;;;;;0.57;0.57;;;;;;;-8.61;68.25;98285.50;5094462;28;20559;-67
2021/11/26 06:14:49;;;;;;;0.75;0.73;;;;;;;-8.59;68.23;98288.88;5094175;28;20036;-67
2021/11/26 06:17:15;;;;;;;1.88;0.73;;;;;;;-8.50;68.27;98296.09;5075833;28;20406;-69
2021/11/26 06:19:40;;;;;;;1.42;0.50;;;;;;;-8.40;67.87;98285.50;5094172;28;20048;-70
2021/11/26 06:22:06;;;;;;;5.47;1.15;;;;;;;-8.21;67.59;98298.13;5094598;28;20073;-70
2021/11/26 06:24:32;;;;;;;1.08;0.68;;;;;;;-8.06;67.41;98295.97;5091962;28;20438;-71
2021/11/26 06:26:58;;;;;;;0.60;0.60;;;;;;;-7.93;67.25;98307.28;5093964;28;20052;-69
2021/11/26 06:29:24;;;;;;;1.40;1.20;;;;;;;-7.82;66.94;98306.34;5094047;28;20450;-71
2021/11/26 06:31:49;;;;;;;0.93;0.85;;;;;;;-7.72;67.08;98308.25;5093715;28;20048;-70
2021/11/26 06:34:15;;;;;;;2.00;1.50;;;;;;;-7.65;66.87;98301.44;5094598;28;20036;-70
2021/11/26 06:36:41;;;;;;;0.52;0.52;;;;;;;-7.56;66.92;98313.97;5094218;28;20396;-70
2021/11/26 06:39:07;;;;;;;0.60;0.60;;;;;;;-7.54;67.12;98305.81;5093294;28;20410;-70
2021/11/26 06:41:32;;;;;;;0.75;0.65;;;;;;;-7.46;66.75;98308.69;5094282;28;20043;-71
2021/11/26 06:43:58;;;;;;;0.35;0.35;;;;;;;-7.38;66.59;98310.69;5093689;28;20032;-68
2021/11/26 06:46:25;;;;;;;0.40;0.40;;;;;;;-7.32;66.49;98316.31;5092669;28;20036;-69
2021/11/26 06:48:51;;;;;;;7.03;0.68;;;;;;;-7.30;66.60;98326.84;5094050;28;20055;-68
2021/11/26 06:51:17;;;;;;;0.38;0.38;;;;;;;-7.31;66.85;98311.84;5094004;28;20044;-68
2021/11/26 06:53:42;;;;;;;0.40;0.40;;;;;;;-7.28;66.91;98323.06;5093563;28;20055;-71
2021/11/26 06:56:08;;;;;;;1.27;1.10;;;;;;;-7.21;66.71;98334.06;5093686;28;20101;-71
2021/11/26 06:58:34;;;;;;;0.30;0.30;;;;;;;-7.16;66.78;98328.31;5093931;28;20052;-69
2021/11/26 07:01:00;;;;;;;1.27;1.13;;;;;;;-7.18;66.80;98339.13;5093858;28;20032;-68
2021/11/26 07:03:26;;;;;;;1.08;1.05;;;;;;;-7.19;66.89;98340.09;5093021;28;20032;-68
2021/11/26 07:05:51;;;;;;;0.50;0.50;;;;;;;-7.22;67.08;98337.69;5093780;28;20036;-68
2021/11/26 07:08:18;;;;;;;1.00;0.45;;;;;;;-7.17;66.95;98348.81;5093687;28;20410;-68
2021/11/26 07:10:44;;;;;;;0.90;0.80;;;;;;;-7.22;67.24;98341.22;5093326;28;20115;-68
2021/11/26 07:13:10;;;;;;;0.50;0.50;;;;;;;-7.14;67.45;98348.56;5093114;28;20044;-67
2021/11/26 07:15:36;;;;;;;0.40;0.40;;;;;;;-7.06;67.20;98351.38;5092994;28;20059;-67
2021/11/26 07:18:03;;;;;;;0.50;0.50;;;;;;;-7.01;67.16;98361.66;5093128;28;20048;-68
2021/11/26 07:20:29;;;;;;;0.30;0.30;;;;;;;-7.01;67.16;98364.31;5093416;28;20036;-67
2021/11/26 07:22:59;;;;;;;0.60;0.60;;;;;;;-7.03;67.30;98366.28;5093489;28;20040;-67
2021/11/26 07:25:25;;;;;;;0.40;0.40;;;;;;;-6.98;67.05;98365.88;5093307;28;20039;-68
2021/11/26 07:27:51;;;;;;;0.40;0.40;;;;;;;-6.95;67.17;98360.28;5093304;28;20043;-68
2021/11/26 07:30:17;;;;;;;2.15;1.42;;;;;;;-6.87;67.26;98365.78;5093039;28;20402;-68
2021/11/26 07:32:43;;;;;;;0.75;0.75;;;;;;;-6.84;67.00;98370.88;5092488;28;20116;-68
2021/11/26 07:35:09;;;;;;;0.32;0.32;;;;;;;-6.82;67.06;98355.53;5093431;28;20036;-68
2021/11/26 07:37:36;;;;;;;0.30;0.30;;;;;;;-6.78;67.03;98372.16;5093013;28;20173;-68
2021/11/26 07:40:07;;;;;;;0.75;0.75;;;;;;;-6.82;67.14;98371.56;5092669;28;20172;-68
2021/11/26 07:42:34;;;;;;;1.10;0.60;;;;;;;-6.75;67.18;98364.69;5093132;28;20047;-67
2021/11/26 07:45:00;;;;;;;0.40;0.40;;;;;;;-6.69;66.93;98347.28;5092925;28;20036;-68
2021/11/26 07:47:25;;;;;;;3.13;1.15;;;;;;;-6.59;66.67;98337.47;5092839;28;20040;-70
2021/11/26 07:49:52;;;;;;;0.60;0.50;;;;;;;-6.51;66.77;98331.44;5092009;28;20129;-67
2021/11/26 07:52:19;;;;;;;2.63;1.38;;;;;;;-6.47;66.51;98343.53;5092427;28;20131;-68
2021/11/26 07:54:45;;;;;;;0.45;0.45;;;;;;;-6.41;66.63;98332.28;5092901;28;20119;-68
2021/11/26 07:57:11;;;;;;;0.50;0.50;;;;;;;-6.30;66.73;98334.00;5093606;28;20046;-68
2021/11/26 07:59:38;;;;;;;0.40;0.40;;;;;;;-6.30;66.59;98331.34;5092485;28;20494;-68
2021/11/26 08:02:04;;;;;;;0.65;0.65;;;;;;;-6.37;66.65;98333.72;5092307;28;20432;-68
2021/11/26 08:04:30;;;;;;;0.63;0.63;;;;;;;-6.41;66.96;98331.47;5092682;28;20070;-67
2021/11/26 08:06:56;;;;;;;0.30;0.30;;;;;;;-6.46;66.86;98329.22;5092658;28;20040;-67
2021/11/26 08:09:22;;;;;;;0.68;0.68;;;;;;;-6.46;67.08;98329.22;5092321;28;20046;-68
2021/11/26 08:11:49;;;;;;;0.45;0.45;;;;;;;-6.44;67.14;98334.41;5092388;28;20043;-67
2021/11/26 08:14:17;;;;;;;0.40;0.40;;;;;;;-6.42;66.82;98335.97;5092824;28;20089;-70
2021/11/26 08:16:43;;;;;;;0.50;0.50;;;;;;;-6.45;67.08;98344.22;5092589;28;20426;-68
2021/11/26 08:19:10;;;;;;;0.50;0.50;;;;;;;-6.48;66.77;98349.84;5074414;28;20417;-69
2021/11/26 08:21:38;;;;;;;0.40;0.40;;;;;;;-6.48;66.84;98349.84;5092327;28;20036;-68
2021/11/26 08:24:08;;;;;;;0.30;0.30;;;;;;;-6.39;66.75;98359.72;5092397;28;20040;-69
2021/11/26 08:26:37;;;;;;;0.30;0.30;;;;;;;-6.26;66.71;98355.94;5092842;28;20040;-68
2021/11/26 08:29:04;;;;;;;2.30;0.50;;;;;;;-6.17;66.34;98355.09;5092424;28;20134;-68
2021/11/26 08:31:31;;;;;;;0.50;0.50;;;;;;;-6.06;66.20;98356.81;5091782;28;20047;-70
2021/11/26 08:33:57;;;;;;;0.38;0.38;;;;;;;-6.04;66.19;98355.66;5092547;28;20036;-70
2021/11/26 08:36:23;;;;;;;0.55;0.55;;;;;;;-6.01;66.02;98355.41;5073753;28;20051;-68
2021/11/26 08:38:50;;;;;;;0.75;0.75;;;;;;;-5.98;66.16;98351.56;5092169;28;20059;-70
2021/11/26 08:41:16;;;;;;;0.50;0.50;;;;;;;-6.00;66.45;98354.41;5092308;28;20046;-70
2021/11/26 08:43:42;;;;;;;0.52;0.52;;;;;;;-6.05;66.33;98348.66;5092563;28;20040;-69
2021/11/26 08:46:08;;;;;;;0.52;0.52;;;;;;;-6.04;66.56;98339.63;5092393;28;20060;-70
2021/11/26 08:48:34;;;;;;;0.73;0.70;;;;;;;-6.12;66.72;98338.63;5092095;28;20032;-70
2021/11/26 08:51:00;;;;;;;0.45;0.45;;;;;;;-6.11;66.75;98348.34;5090928;28;20039;-70
2021/11/26 08:53:26;;;;;;;1.08;0.88;;;;;;;-6.11;67.03;98341.19;5092127;28;20036;-70
2021/11/26 08:55:55;;;;;;;0.50;0.50;;;;;;;-6.10;66.69;98334.84;5092581;28;20047;-70
2021/11/26 08:58:22;;;;;;;0.63;0.63;;;;;;;-6.10;67.20;98329.50;5092694;28;20063;-72
2021/11/26 09:00:48;;;;;;;0.38;0.38;;;;;;;-6.10;67.05;98326.81;5093402;28;20414;-70
2021/11/26 09:03:15;;;;;;;0.30;0.30;;;;;;;-6.14;67.13;98324.56;5095335;28;20494;-72
2021/11/26 09:06:23;;;;;;;0.40;0.40;;;;;;;-6.14;67.35;98321.91;5091957;28;20474;-71
2021/11/26 09:09:28;;;;;;;0.40;0.40;;;;;;;-6.17;67.60;98315.00;5090747;28;20039;-71
2021/11/26 09:12:14;;;;;;;;;;;;;;;-6.22;67.40;98304.75;5095674;28;20124;-69
2021/11/26 09:22:25;;;;;;;0.40;0.40;;;;;;;-6.27;67.52;98287.44;5085134;28;20185;-69
2021/11/26 09:28:54;;;;;;;0.60;0.60;;;;;;;-6.18;67.41;98273.25;5082532;28;20055;-65
2021/11/26 09:32:01;;;;;;;0.60;0.60;;;;;;;-6.14;67.43;98271.97;5088964;28;20063;-67
2021/11/26 09:35:07;;;;;;;0.30;0.30;;;;;;;-6.10;67.25;98265.34;5084314;28;20145;-67
2021/11/26 09:37:52;;;;;;;;;;;;;;;-6.08;67.12;98258.06;5071044;28;20055;-69
2021/11/26 09:44:19;;;;;;;2.30;0.63;;;;;;;-6.06;67.11;98256.06;5078830;28;20466;-70
2021/11/26 09:47:04;;;;;;;;;;;;;;;-6.05;67.16;98252.41;5090700;28;20048;-67
2021/11/26 09:53:46;;;;;;;1.38;1.02;;;;;;;-6.07;67.24;98243.69;5071492;28;20482;-68
2021/11/26 09:56:51;;;;;;;0.30;0.30;;;;;;;-6.07;67.26;98246.34;5107778;28;20043;-69
2021/11/26 09:59:41;;;;;;;;;;;;;;;-6.05;67.23;98241.72;5100370;28;20576;-69
2021/11/26 10:02:50;;;;;;;0.57;0.57;;;;;;;-6.03;67.26;98247.75;5076295;28;19924;-68
2021/11/26 10:09:17;;;;;;;0.50;0.50;;;;;;;-5.91;67.11;98239.56;5088070;28;20097;-69
2021/11/26 10:15:50;;;;;;;0.40;0.40;;;;;;;-5.83;66.88;98239.66;5089470;28;20201;-67
2021/11/26 10:18:41;;;;;;;0.63;0.63;;;;;;;-5.83;67.04;98234.31;5086709;28;20040;-69
2021/11/26 10:25:25;;;;;;;0.40;0.40;;;;;;;-5.76;66.91;98219.38;5081223;28;20066;-67
2021/11/26 10:28:36;;;;;;;2.70;0.73;;;;;;;-5.72;67.00;98222.63;5085197;28;20044;-66
2021/11/26 10:31:42;;;;;;;0.50;0.50;;;;;;;-5.73;66.96;98211.06;5087802;28;20126;-70
2021/11/26 10:34:47;;;;;;;0.40;0.40;;;;;;;-5.74;67.11;98208.53;5089101;28;20517;-64
2021/11/26 10:37:59;;;;;;;1.10;0.55;;;;;;;-5.76;67.33;98203.31;5070315;28;20111;-70
2021/11/26 10:41:05;;;;;;;0.30;0.30;;;;;;;-5.76;67.17;98208.69;5088460;28;20070;-69
2021/11/26 10:44:12;;;;;;;0.40;0.40;;;;;;;-5.72;67.57;98207.41;5084703;28;20048;-68
2021/11/26 10:47:51;;;;;;;0.30;0.30;;;;;;;-5.67;67.30;98190.91;5080865;28;20074;-68
2021/11/26 11:07:25;;;;;;;0.30;0.30;;;;;;;-5.31;67.16;98164.28;5079999;28;20051;-70
2021/11/26 11:17:30;;;;;;;0.50;0.50;;;;;;;-5.20;67.33;98156.03;5078778;28;20038;-69
2021/11/26 11:24:17;;;;;;;0.85;0.82;;;;;;;-5.19;67.40;98155.03;5075817;28;20059;-67
2021/11/26 11:27:04;;;;;;;;;;;;;;;-5.19;67.44;98152.34;5081912;28;20041;-69
2021/11/26 11:33:33;;;;;;;0.45;0.45;;;;;;;-5.18;67.37;98131.78;5078392;28;20052;-69
2021/11/26 11:36:18;;;;;;;;;;;;;;;-5.19;67.52;98135.47;5069715;28;20126;-69
2021/11/26 11:42:25;;;;;;;0.30;0.30;;;;;;;-5.16;67.60;98125.28;5083239;28;20067;-67
2021/11/26 11:45:00;;;;;;;0.50;0.50;;;;;;;-5.13;67.66;98134.84;5067254;28;20040;-69
2021/11/26 11:47:26;;;;;;;0.40;0.40;;;;;;;-5.11;67.57;98132.84;5084995;28;20426;-67
2021/11/26 11:50:26;;;;;;;0.40;0.40;;;;;;;-5.07;67.52;98120.03;5085742;28;20177;-69
2021/11/26 11:53:00;;;;;;;0.40;0.40;;;;;;;-5.05;67.61;98112.66;5043389;28;20039;-70
2021/11/26 11:55:30;;;;;;;0.30;0.30;;;;;;;-4.99;67.89;98112.06;5083105;28;20497;-69
2021/11/26 11:58:12;;;;;;;0.40;0.40;;;;;;;-4.98;67.87;98097.69;5081520;28;20043;-68
2021/11/26 12:00:57;;;;;;;0.40;0.40;;;;;;;-4.97;67.96;98099.38;5083683;28;20036;-71
2021/11/26 12:03:27;;;;;;;0.40;0.40;;;;;;;-4.93;67.90;98090.03;5083583;28;20047;-73
2021/11/26 12:05:57;;;;;;;0.30;0.30;;;;;;;-4.90;67.88;98086.19;5084318;28;20047;-71
2021/11/26 12:08:25;;;;;;;0.35;0.35;;;;;;;-4.86;67.95;98076.88;5081107;28;20402;-71
2021/11/26 12:10:56;;;;;;;0.43;0.43;;;;;;;-4.85;67.81;98071.34;5081811;28;20028;-71
2021/11/26 12:13:34;;;;;;;0.40;0.40;;;;;;;-4.82;68.21;98070.22;5078887;28;20441;-70
2021/11/26 12:16:13;;;;;;;0.38;0.38;;;;;;;-4.80;68.26;98070.88;5083096;28;20181;-70
2021/11/26 12:18:50;;;;;;;0.75;0.65;;;;;;;-4.77;68.07;98060.72;5082199;28;20048;-69
2021/11/26 12:21:28;;;;;;;0.30;0.30;;;;;;;-4.78;67.98;98052.84;5080171;28;20498;-70
2021/11/26 12:24:09;;;;;;;0.40;0.40;;;;;;;-4.81;68.14;98045.94;5083324;28;20052;-69
2021/11/26 12:27:02;;;;;;;0.40;0.40;;;;;;;-4.78;68.42;98042.13;5080246;28;20036;-70
2021/11/26 12:29:47;;;;;;;0.82;0.82;;;;;;;-4.79;68.50;98046.63;5076338;28;20433;-69
2021/11/26 12:32:17;;;;;;;0.30;0.30;;;;;;;-4.78;68.46;98026.06;5078935;28;20020;-69
2021/11/26 12:34:46;;;;;;;0.60;0.60;;;;;;;-4.71;68.29;98035.16;5079679;28;20047;-68
2021/11/26 12:37:24;;;;;;;0.90;0.50;;;;;;;-4.67;68.38;98032.97;5085251;28;20035;-73
2021/11/26 12:39:55;;;;;;;0.77;0.77;;;;;;;-4.65;68.18;98037.19;5086580;28;20074;-72
2021/11/26 12:42:22;;;;;;;0.40;0.40;;;;;;;-4.61;68.36;98016.28;5080665;28;20443;-71
2021/11/26 12:45:12;;;;;;;0.30;0.30;;;;;;;-4.57;68.31;98013.13;5084423;28;20046;-75
2021/11/26 12:47:44;;;;;;;0.57;0.57;;;;;;;-4.53;68.28;98020.84;5091727;28;20036;-71
2021/11/26 12:53:15;;;;;;;0.57;0.57;;;;;;;-4.48;68.16;97997.09;5092762;28;20035;-68
2021/11/26 12:55:58;;;;;;;0.73;0.73;;;;;;;-4.45;68.20;98000.28;5092111;28;20064;-68
2021/11/26 12:58:25;;;;;;;0.40;0.40;;;;;;;-4.43;68.11;97998.31;5092410;28;20042;-72